Gosport, Alabama
Current Conditions -  °F | °C
As of 1:53 PM on Sunday 25 Jan 2015 (Local Time) from KGZH Reporting Station
Clear Clear  
Wind Chill: 63°   Ceiling: Unl
Heat Index: 63°   Visibility: 10mi
Dew Point: 39°   Wind: 18mph
Humidity: 41%   Direction: 200°SSW
Pressure: 29.85"   Gusts: 23mph
Location:  31.6457°N, 87.6115°W
Report Text: KGZH 251953Z AUTO 20016G20KT 10SM CLR 17/04 A2985 RMK AO2 SLP107 T01720039
Loading
Personal Weather Stations






























Interactive Weather Map New forecast layout! Learn more

10-Day Weather Forecast

Advertisements
Track Severe Weather on mobile